Middelfart, Denmark
Current Conditions -  °F | °C
As of 8:50 PM on Tuesday 21 Oct 2014 (Local Time) from EKSP Reporting Station
Broken Clouds Broken Clouds  
Wind Chill: 50°   Ceiling: 4400
Heat Index: 50°   Visibility: 6mi
Dew Point: 50°   Wind: 8mph
Humidity: 100%   Direction: 250°WSW
Pressure: 29.29"   Gusts: NA
Location:  55.51°N, 9.73°E
Report Text: EKSP 211850Z 25007KT 9999 BKN044 BKN120 10/10 Q0992
Loading
Personal Weather Stations






























Interactive Weather Map
Tropical Storm Tracking
New forecast layout! Learn more

10-Day Weather Forecast

Advertisements
Track Severe Weather on mobile